Time;durP1;ratioP1;P1;durP2;ratioP2;P2;SDS_P1;SDS_P2;PMS_P1;PMS_P2;Temp;Humidity;BMP_temperature;BMP_pressure;BME280_temperature;BME280_humidity;BME280_pressure;Samples;Min_cycle;Max_cycle;Signal;HPM_P1;HPM_P2
2022/01/02 00:03:08;;;;;;;15.35;5.72;;;;;;;6.53;100.00;101094.50;10269100;28;20118;-92
2022/01/02 00:08:20;;;;;;;8.20;4.97;;;;;;;5.74;100.00;101140.28;10253234;28;20031;-92
2022/01/02 00:13:36;;;;;;;14.15;5.45;;;;;;;6.98;100.00;101123.56;10268433;28;20030;-92
2022/01/02 00:18:48;;;;;;;11.60;5.88;;;;;;;5.97;100.00;100937.56;10269495;28;20038;-93
2022/01/02 00:23:58;;;;;;;12.68;5.90;;;;;;;4.41;100.00;100647.88;10247951;28;20042;-92
2022/01/02 00:29:06;;;;;;;9.98;5.47;;;;;;;4.07;100.00;100755.34;10243848;29;20115;-91
2022/01/02 00:34:18;;;;;;;11.85;6.57;;;;;;;4.33;100.00;100664.50;10211373;29;20512;-90
2022/01/02 00:39:29;;;;;;;17.10;7.10;;;;;;;5.50;100.00;100974.44;10226896;29;20081;-89
2022/01/02 00:45:11;;;;;;;13.77;6.95;;;;;;;4.43;100.00;100866.56;10243051;28;20403;-90
2022/01/02 01:03:25;;;;;;;11.93;6.32;;;;;;;7.49;100.00;101234.75;10097227;29;20064;-94
2022/01/02 01:09:06;;;;;;;12.27;7.55;;;;;;;2.50;100.00;100510.38;10059196;29;20045;-94
2022/01/02 01:14:13;;;;;;;15.48;7.78;;;;;;;5.45;100.00;100910.38;10094797;29;20043;-94
2022/01/02 01:19:22;;;;;;;12.45;7.35;;;;;;;2.74;100.00;100540.66;10168473;28;20122;-90
2022/01/02 01:24:57;;;;;;;15.50;7.90;;;;;;;6.12;100.00;101123.16;10280390;28;20034;-89
2022/01/02 01:30:30;;;;;;;13.20;7.18;;;;;;;9.80;100.00;101734.16;10254429;28;20529;-89
2022/01/02 01:35:49;;;;;;;16.80;7.15;;;;;;;9.84;100.00;101661.13;10282159;28;20036;-90
2022/01/02 01:41:56;;;;;;;14.82;7.22;;;;;;;1.75;100.00;100404.66;10261817;28;20043;-95
2022/01/02 01:47:09;;;;;;;13.65;7.72;;;;;;;4.95;100.00;100923.88;10273425;28;20085;-95
2022/01/02 01:52:57;;;;;;;10.52;6.60;;;;;;;8.52;100.00;101337.47;10266660;28;20033;-94
2022/01/02 01:59:16;;;;;;;;;;;;;;;;;;;;;
2022/01/02 02:04:13;;;;;;;15.82;8.25;;;;;;;4.14;100.00;100685.34;10228348;29;20130;-90
2022/01/02 02:16:09;;;;;;;;;;;;;;;;;;;;;
2022/01/02 02:29:02;;;;;;;;;;;;;;;;;;;;;
2022/01/02 02:34:46;;;;;;;;;;;;;;;;;;;;;
2022/01/02 02:40:20;;;;;;;22.20;9.95;;;;;;;4.09;100.00;100684.31;10273333;28;20495;-90
2022/01/02 02:57:57;;;;;;;;;;;;;;;;;;;;;
2022/01/02 03:03:53;;;;;;;;;;;;;;;;;;;;;
2022/01/02 03:09:59;;;;;;;21.83;9.48;;;;;;;9.63;100.00;101353.66;10281316;28;20062;-95
2022/01/02 03:21:47;;;;;;;;;;;;;;;;;;;;;
2022/01/02 03:34:20;;;;;;;;;;;;;;;;;;;;;
2022/01/02 03:46:46;;;;;;;25.52;12.25;;;;;;;3.72;100.00;100414.47;10225400;28;20087;-95
2022/01/02 03:52:31;;;;;;;;;;;;;;;;;;;;;
2022/01/02 04:11:17;;;;;;;;;;;;;;;;;;;;;
2022/01/02 04:23:32;;;;;;;32.17;12.57;;;;;;;4.19;100.00;100344.09;10300625;28;20562;-95
2022/01/02 04:29:10;;;;;;;;;;;;;;;;;;;;;
2022/01/02 04:35:16;;;;;;;;;;;;;;;;;;;;;
2022/01/02 04:41:23;;;;;;;;;;;;;;;;;;;;;
2022/01/02 04:46:45;;;;;;;22.10;9.45;;;;;;;5.17;100.00;100718.91;10178187;29;20039;-91
2022/01/02 04:52:00;;;;;;;23.42;9.82;;;;;;;2.72;100.00;100211.13;10229560;29;20038;-93
2022/01/02 04:57:13;;;;;;;26.67;9.68;;;;;;;8.24;100.00;101067.25;10243444;29;20121;-92
2022/01/02 05:09:40;;;;;;;23.50;9.77;;;;;;;4.39;100.00;100422.94;10177443;29;20028;-93
2022/01/02 05:15:06;;;;;;;30.95;11.00;;;;;;;4.30;100.00;100485.06;10161261;29;20482;-91
2022/01/02 05:20:20;;;;;;;26.98;10.00;;;;;;;4.00;100.00;100223.41;10174059;28;20043;-95
2022/01/02 05:25:38;;;;;;;20.33;9.18;;;;;;;4.55;100.00;100367.00;10201467;29;20473;-91
2022/01/02 05:31:17;;;;;;;19.40;9.38;;;;;;;8.13;100.00;100928.19;10172420;29;20126;-94
2022/01/02 05:36:14;;;;;;;22.98;9.63;;;;;;;5.25;100.00;100612.16;10202223;29;20051;-93
2022/01/02 05:41:56;;;;;;;23.58;9.05;;;;;;;3.84;100.00;100233.00;10186103;29;20035;-94
2022/01/02 05:47:10;;;;;;;22.52;8.77;;;;;;;7.32;100.00;100782.59;10202350;29;20091;-94
2022/01/02 05:52:35;;;;;;;;;;;;;;;;;;;;;
2022/01/02 05:58:12;;;;;;;21.35;8.15;;;;;;;2.44;100.00;100100.97;10200688;29;20490;-91
2022/01/02 06:04:05;;;;;;;;;;;;;;;;;;;;;
2022/01/02 06:09:52;;;;;;;23.80;9.00;;;;;;;4.42;100.00;100251.63;10192471;29;20461;-95
2022/01/02 06:15:51;;;;;;;;;;;;;;;;;;;;;
2022/01/02 06:27:37;;;;;;;22.88;8.25;;;;;;;6.04;100.00;100676.00;9975459;29;20050;-93
2022/01/02 06:32:59;;;;;;;25.08;8.23;;;;;;;4.42;100.00;100308.84;10126758;29;20542;-94
2022/01/02 06:38:23;;;;;;;21.65;8.93;;;;;;;8.08;100.00;100919.84;10227831;28;20117;-92
2022/01/02 06:43:51;;;;;;;;;;;;;;;;;;;;;
2022/01/02 06:55:25;;;;;;;;;;;;;;;;;;;;;
2022/01/02 07:00:56;;;;;;;17.08;7.38;;;;;;;9.10;100.00;100838.94;10122655;29;20037;-94
2022/01/02 07:06:02;;;;;;;19.85;7.20;;;;;;;5.00;100.00;100151.97;10118003;29;20037;-93
2022/01/02 07:11:05;;;;;;;15.68;6.03;;;;;;;5.39;100.00;100190.53;10197582;28;20026;-94
2022/01/02 07:16:11;;;;;;;16.52;5.72;;;;;;;4.34;100.00;100174.75;10271947;28;20100;-92
2022/01/02 07:21:24;;;;;;;;;;;;;;;;;;;;;
2022/01/02 07:26:53;;;;;;;15.98;5.22;;;;;;;5.60;100.00;100175.47;10264152;28;20074;-91
2022/01/02 07:32:50;;;;;;;;;;;;;;;;;;;;;
2022/01/02 07:37:52;;;;;;;13.65;4.70;;;;;;;4.25;100.00;99965.28;10264218;28;20027;-92
2022/01/02 07:43:13;;;;;;;14.48;5.00;;;;;;;7.51;100.00;100629.94;10261911;28;20054;-95
2022/01/02 07:48:21;;;;;;;10.35;3.95;;;;;;;9.24;100.00;100828.47;10277432;28;20094;-90
2022/01/02 07:53:21;;;;;;;12.15;4.70;;;;;;;6.55;100.00;100432.31;10263559;28;20090;-91
2022/01/02 07:58:22;;;;;;;11.25;4.75;;;;;;;3.97;100.00;99989.63;10268997;28;20101;-90
2022/01/02 08:03:55;;;;;;;13.93;4.43;;;;;;;9.11;100.00;100729.91;10248461;28;20035;-91
2022/01/02 08:09:25;;;;;;;;;;;;;;;;;;;;;
2022/01/02 08:14:53;;;;;;;12.55;4.45;;;;;;;5.00;100.00;100034.66;10238520;29;20075;-92
2022/01/02 08:19:56;;;;;;;12.20;4.75;;;;;;;5.72;100.00;100170.00;10218562;28;20037;-91
2022/01/02 08:25:31;;;;;;;12.80;5.00;;;;;;;5.50;100.00;100305.44;10267698;28;20126;-93
2022/01/02 08:31:28;;;;;;;12.35;4.68;;;;;;;3.71;100.00;99967.16;10147260;29;20060;-94
2022/01/02 08:36:52;;;;;;;11.00;4.68;;;;;;;7.79;100.00;100700.44;10161342;28;20042;-89
2022/01/02 08:41:55;;;;;;;17.40;5.35;;;;;;;6.15;100.00;100384.66;10259073;28;20086;-89
2022/01/02 08:54:07;;;;;;;;;;;;;;;;;;;;;
2022/01/02 09:32:18;;;;;;;;;;;;;;;;;;;;;
2022/01/02 10:01:44;;;;;;;7.93;5.03;;;;;;;9.29;100.00;100779.13;10376204;28;20062;-91
2022/01/02 10:06:50;;;;;;;10.60;4.93;;;;;;;8.39;100.00;100509.94;10328896;28;20432;-93
2022/01/02 10:17:55;;;;;;;14.15;5.00;;;;;;;5.83;100.00;100275.69;10321712;28;20414;-94
2022/01/02 10:24:09;;;;;;;11.07;4.78;;;;;;;5.69;100.00;100088.56;10270617;28;20041;-91
2022/01/02 10:29:45;;;;;;;14.57;4.85;;;;;;;8.41;100.00;100436.50;10275952;28;20637;-85
2022/01/02 10:34:46;;;;;;;11.25;5.05;;;;;;;10.05;100.00;100686.00;10263277;28;20121;-86
2022/01/02 10:39:49;;;;;;;16.65;5.50;;;;;;;10.45;100.00;100783.09;10262173;28;20482;-90
2022/01/02 10:44:52;;;;;;;15.85;5.82;;;;;;;6.69;100.00;100241.44;10266277;28;20031;-90
2022/01/02 10:50:17;;;;;;;11.43;5.65;;;;;;;4.60;100.00;99792.72;10254720;28;20502;-90
2022/01/02 10:55:32;;;;;;;9.10;5.25;;;;;;;5.40;100.00;99859.19;10278998;28;20027;-91
2022/01/02 11:00:51;;;;;;;18.05;6.50;;;;;;;8.09;100.00;100384.94;10279537;28;20043;-92
2022/01/02 11:05:55;;;;;;;10.57;7.05;;;;;;;4.94;100.00;99787.41;10247483;28;20097;-90
2022/01/02 11:10:58;;;;;;;12.65;6.07;;;;;;;6.42;100.00;100086.16;10246385;28;20035;-91
2022/01/02 11:16:01;;;;;;;12.20;6.00;;;;;;;3.60;100.00;99560.53;10245901;28;20065;-83
2022/01/02 11:21:23;;;;;;;8.90;5.57;;;;;;;5.37;100.00;99862.41;10290782;28;20042;-92
2022/01/02 11:26:59;;;;;;;;;;;;;;;;;;;;;
2022/01/02 11:32:00;;;;;;;17.87;4.93;;;;;;;7.44;100.00;100257.56;10313742;28;20554;-91
2022/01/02 11:37:13;;;;;;;12.88;5.13;;;;;;;7.94;100.00;100277.78;10293915;28;20120;-92
2022/01/02 11:42:51;;;;;;;8.82;4.75;;;;;;;7.37;100.00;100102.72;10310117;28;20037;-91
2022/01/02 11:47:52;;;;;;;10.77;4.47;;;;;;;6.88;100.00;100262.03;10300539;28;20053;-92
2022/01/02 11:53:11;;;;;;;12.35;4.82;;;;;;;10.67;100.00;100660.03;10294898;28;20050;-94
2022/01/02 11:58:12;;;;;;;12.07;4.68;;;;;;;6.62;100.00;100119.31;10334954;28;20383;-87
2022/01/02 12:03:38;;;;;;;12.77;5.47;;;;;;;10.58;100.00;100650.56;10317265;28;20053;-90
2022/01/02 12:08:38;;;;;;;14.63;5.28;;;;;;;7.17;100.00;100160.72;10349478;28;20041;-93
2022/01/02 12:13:39;;;;;;;11.48;4.32;;;;;;;8.72;100.00;100409.47;10332484;28;20044;-90
2022/01/02 12:18:56;;;;;;;14.05;5.50;;;;;;;7.81;100.00;100272.66;10332268;28;20048;-92
2022/01/02 12:23:56;;;;;;;12.73;4.32;;;;;;;6.84;100.00;100111.22;10349780;28;20038;-88
2022/01/02 12:29:05;;;;;;;7.57;4.57;;;;;;;7.99;100.00;100372.97;10326725;28;20046;-87
2022/01/02 12:34:06;;;;;;;11.23;3.38;;;;;;;7.79;100.00;100182.50;10333783;28;20099;-93
2022/01/02 12:39:08;;;;;;;15.48;2.78;;;;;;;7.74;100.00;100209.81;10345981;28;20496;-91
2022/01/02 12:44:15;;;;;;;15.35;3.15;;;;;;;8.43;100.00;100491.06;10325556;28;20030;-92
2022/01/02 12:49:20;;;;;;;;;;;;;;;10.77;100.00;100658.47;10313403;28;20038;-88
2022/01/02 12:54:23;;;;;;;14.88;3.28;;;;;;;7.38;100.00;100170.94;10346875;28;20385;-88
2022/01/02 12:59:25;;;;;;;7.38;2.03;;;;;;;9.33;100.00;100601.72;10330570;28;20050;-90
2022/01/02 13:04:36;;;;;;;18.73;3.20;;;;;;;5.80;100.00;99959.28;10332399;28;20049;-88
2022/01/02 13:09:40;;;;;;;10.35;2.80;;;;;;;5.89;100.00;100178.31;10325685;28;20030;-92
2022/01/02 13:14:47;;;;;;;14.45;3.78;;;;;;;8.47;100.00;100402.56;10327359;28;20131;-92
2022/01/02 13:20:04;;;;;;;16.15;2.65;;;;;;;5.75;100.00;100011.13;10340503;28;20546;-90
2022/01/02 13:25:14;;;;;;;12.60;2.25;;;;;;;6.45;100.00;100104.81;10353250;28;20101;-90
2022/01/02 13:30:16;;;;;;;22.33;2.83;;;;;;;5.63;100.00;100029.44;10320556;28;20474;-92
2022/01/02 13:35:27;;;;;;;7.10;2.70;;;;;;;4.47;100.00;99893.84;10330014;28;20042;-91
2022/01/02 13:40:29;;;;;;;17.88;2.90;;;;;;;8.44;100.00;100485.34;10313708;28;20030;-90
2022/01/02 13:45:31;;;;;;;11.80;2.15;;;;;;;7.51;100.00;100366.13;10327737;28;20524;-89
2022/01/02 13:50:33;;;;;;;8.95;1.98;;;;;;;8.82;100.00;100557.00;10343781;28;20038;-90
2022/01/02 13:55:35;;;;;;;7.13;1.90;;;;;;;10.24;100.00;100886.53;10328295;28;20049;-89
2022/01/02 14:00:42;;;;;;;10.50;1.65;;;;;;;10.14;100.00;101008.25;10327765;28;20493;-91
2022/01/02 14:05:43;;;;;;;;;;;;;;;10.03;100.00;100742.34;10303864;28;20034;-90
2022/01/02 14:10:44;;;;;;;9.35;1.42;;;;;;;7.59;100.00;100396.69;10320032;28;19964;-90
2022/01/02 14:15:58;;;;;;;7.72;1.48;;;;;;;5.73;100.00;100229.03;10286905;28;20031;-88
2022/01/02 14:21:02;;;;;;;6.75;1.05;;;;;;;6.93;100.00;100382.56;10287113;28;20097;-90
2022/01/02 14:26:02;;;;;;;4.82;1.45;;;;;;;4.77;100.00;100157.38;10304762;28;20026;-90
2022/01/02 14:31:03;;;;;;;8.85;1.52;;;;;;;7.37;100.00;100519.78;10288034;28;20026;-90
2022/01/02 14:36:03;;;;;;;9.13;1.33;;;;;;;6.79;100.00;100312.75;10291004;28;20062;-89
2022/01/02 14:41:04;;;;;;;5.60;2.05;;;;;;;6.83;100.00;100382.34;10302349;28;20066;-90
2022/01/02 14:46:04;;;;;;;8.07;1.58;;;;;;;5.94;100.00;100286.84;10286378;28;20556;-90
2022/01/02 14:51:05;;;;;;;14.07;1.70;;;;;;;5.72;100.00;100200.03;10293484;28;20030;-88
2022/01/02 14:56:06;;;;;;;9.38;1.50;;;;;;;6.71;100.00;100482.75;10344004;28;20034;-88
2022/01/02 15:01:06;;;;;;;6.68;1.30;;;;;;;5.16;100.00;100130.50;10342031;28;20081;-89
2022/01/02 15:06:07;;;;;;;7.47;1.30;;;;;;;5.54;100.00;100205.63;10297376;28;20044;-88
2022/01/02 15:11:07;;;;;;;7.30;2.47;;;;;;;9.19;100.00;100870.41;10301238;28;20406;-91
2022/01/02 15:16:08;;;;;;;4.35;0.85;;;;;;;6.74;100.00;100477.66;10285866;28;20469;-90
2022/01/02 15:21:09;;;;;;;9.07;1.25;;;;;;;5.28;100.00;100205.03;10302268;28;20129;-91
2022/01/02 15:26:09;;;;;;;12.75;1.80;;;;;;;3.68;100.00;99991.28;10285952;28;20045;-91
2022/01/02 15:31:12;;;;;;;13.23;1.77;;;;;;;8.65;100.00;100933.84;10269361;28;20097;-90
2022/01/02 15:36:12;;;;;;;13.95;2.38;;;;;;;5.18;100.00;100270.25;10302388;28;20077;-91
2022/01/02 15:41:13;;;;;;;7.85;1.42;;;;;;;2.70;100.00;99854.47;10286791;28;20389;-90
2022/01/02 15:46:14;;;;;;;6.57;1.13;;;;;;;5.17;100.00;100325.91;10285966;28;20089;-89
2022/01/02 15:51:14;;;;;;;6.90;1.13;;;;;;;4.68;100.00;100256.94;10305386;28;20386;-89
2022/01/02 15:56:15;;;;;;;6.75;1.63;;;;;;;6.36;100.00;100487.13;10290833;28;20047;-88
2022/01/02 16:01:16;;;;;;;8.20;1.80;;;;;;;6.35;100.00;100558.47;10306372;28;20130;-87
2022/01/02 16:06:16;;;;;;;8.75;1.35;;;;;;;2.90;100.00;99969.25;10331288;28;20497;-88
2022/01/02 16:11:17;;;;;;;7.47;1.50;;;;;;;4.99;100.00;100245.78;10290422;28;20065;-90
2022/01/02 16:16:18;;;;;;;9.85;1.52;;;;;;;7.18;100.00;100701.72;10290364;28;20042;-90
2022/01/02 16:21:18;;;;;;;13.77;2.00;;;;;;;2.67;100.00;99868.50;10274330;28;20044;-90
2022/01/02 16:26:19;;;;;;;12.93;2.53;;;;;;;6.36;100.00;100650.34;10290072;28;20121;-91
2022/01/02 16:31:24;;;;;;;13.40;2.00;;;;;;;4.88;100.00;100235.69;10291397;28;20069;-87
2022/01/02 16:36:24;;;;;;;13.55;1.90;;;;;;;6.15;100.00;100447.53;10307226;28;20166;-93
2022/01/02 16:41:25;;;;;;;12.88;2.60;;;;;;;5.34;100.00;100272.31;10314925;28;20199;-92
2022/01/02 16:46:25;;;;;;;13.02;2.00;;;;;;;5.25;100.00;100322.88;10315235;28;20508;-88
2022/01/02 16:51:26;;;;;;;13.18;2.22;;;;;;;3.28;100.00;100138.72;10328045;28;20154;-88
2022/01/02 16:56:27;;;;;;;15.50;2.30;;;;;;;2.85;100.00;99887.53;10313273;28;20041;-88
2022/01/02 17:01:27;;;;;;;16.48;2.75;;;;;;;5.28;100.00;100447.09;10312620;28;20574;-88
2022/01/02 17:06:28;;;;;;;11.15;1.98;;;;;;;4.02;100.00;100213.09;10327457;28;20049;-88
2022/01/02 17:11:28;;;;;;;8.55;2.78;;;;;;;8.78;100.00;100995.03;10343988;28;20113;-88
2022/01/02 17:16:30;;;;;;;16.67;2.17;;;;;;;2.97;100.00;100100.50;10343123;28;20045;-88
2022/01/02 17:21:31;;;;;;;16.13;2.35;;;;;;;5.75;100.00;100538.28;10326984;28;20120;-88
2022/01/02 17:26:31;;;;;;;10.32;2.05;;;;;;;5.79;100.00;100676.06;10326262;28;20136;-87
2022/01/02 17:31:32;;;;;;;16.02;2.35;;;;;;;4.36;100.00;100409.75;10326667;28;20038;-88
2022/01/02 17:36:36;;;;;;;7.40;1.85;;;;;;;5.06;100.00;100414.81;10322730;28;20088;-88
2022/01/02 17:41:37;;;;;;;13.60;3.05;;;;;;;6.58;100.00;100676.13;10328277;28;20712;-89
2022/01/02 17:46:40;;;;;;;16.98;3.58;;;;;;;3.43;100.00;100129.16;10334624;28;20033;-88
2022/01/02 17:51:40;;;;;;;10.80;1.95;;;;;;;3.83;100.00;100204.94;10307586;28;20479;-90
2022/01/02 17:56:41;;;;;;;12.00;1.67;;;;;;;6.37;100.00;100576.31;10332220;28;20137;-92
2022/01/02 18:01:42;;;;;;;6.65;1.83;;;;;;;6.20;100.00;100587.06;10298581;28;20045;-89
2022/01/02 18:06:42;;;;;;;10.07;1.52;;;;;;;3.30;100.00;100050.38;10314412;28;20129;-89
2022/01/02 18:11:43;;;;;;;10.35;1.83;;;;;;;5.24;100.00;100594.94;10326009;28;20084;-91
2022/01/02 18:16:43;;;;;;;12.52;1.40;;;;;;;4.60;100.00;100278.00;10293658;28;20490;-86
2022/01/02 18:21:51;;;;;;;6.82;1.33;;;;;;;3.30;100.00;100235.38;10299574;28;20034;-86
2022/01/02 18:26:52;;;;;;;13.57;2.20;;;;;;;5.39;100.00;100346.13;10316503;28;20040;-93
2022/01/02 18:31:52;;;;;;;9.82;1.67;;;;;;;2.75;100.00;100096.53;10341486;28;20568;-87
2022/01/02 18:36:53;;;;;;;15.85;2.13;;;;;;;6.10;100.00;100431.00;10297789;28;20033;-87
2022/01/02 18:41:53;;;;;;;8.02;2.05;;;;;;;4.72;100.00;100282.69;10317354;28;20117;-87
2022/01/02 18:46:54;;;;;;;9.88;2.15;;;;;;;5.53;100.00;100455.16;10299482;28;20495;-87
2022/01/02 18:51:54;;;;;;;12.13;2.40;;;;;;;4.07;100.00;100229.59;10316457;28;20035;-87
2022/01/02 18:56:55;;;;;;;9.82;2.45;;;;;;;3.74;100.00;100045.69;10331233;28;20043;-92
2022/01/02 19:01:55;;;;;;;14.18;2.72;;;;;;;5.61;100.00;100446.66;10300813;28;20080;-92
2022/01/02 19:06:56;;;;;;;10.18;3.80;;;;;;;3.77;100.00;100071.59;10317060;28;20529;-91
2022/01/02 19:11:57;;;;;;;9.88;2.08;;;;;;;4.64;100.00;100290.09;10315909;28;20125;-88
2022/01/02 19:16:57;;;;;;;10.57;2.05;;;;;;;4.54;100.00;100223.56;10316863;28;20117;-92
2022/01/02 19:21:58;;;;;;;11.30;2.10;;;;;;;2.22;100.00;99835.16;10303857;28;20473;-88
2022/01/02 19:26:58;;;;;;;9.68;2.70;;;;;;;5.59;100.00;100455.06;10320059;28;20145;-92
2022/01/02 19:31:59;;;;;;;13.13;2.35;;;;;;;6.30;100.00;100500.91;10316643;28;20540;-92
2022/01/02 19:36:59;;;;;;;12.30;3.60;;;;;;;4.15;100.00;100150.28;10300876;28;20046;-86
2022/01/02 19:42:00;;;;;;;12.43;3.50;;;;;;;2.90;100.00;99917.59;10316365;28;20062;-91
2022/01/02 19:47:00;;;;;;;14.35;3.38;;;;;;;4.83;100.00;100238.25;10315638;28;20290;-91
2022/01/02 19:52:01;;;;;;;18.90;3.72;;;;;;;2.12;100.00;99804.97;10320405;28;20034;-87
2022/01/02 19:57:02;;;;;;;13.98;3.08;;;;;;;2.41;100.00;99816.16;10308024;28;20085;-91
2022/01/02 20:02:03;;;;;;;17.20;4.20;;;;;;;3.81;100.00;100030.06;10307605;28;20056;-90
2022/01/02 20:07:04;;;;;;;23.05;4.43;;;;;;;5.23;100.00;100178.44;10322288;28;20050;-90
2022/01/02 20:12:06;;;;;;;19.30;3.53;;;;;;;1.73;100.00;99625.22;10306969;28;20034;-88
2022/01/02 20:17:06;;;;;;;19.42;2.92;;;;;;;6.32;100.00;100259.00;10321939;28;20126;-86
2022/01/02 20:22:07;;;;;;;16.58;3.67;;;;;;;4.74;100.00;100081.50;10322507;28;20046;-87
2022/01/02 20:27:09;;;;;;;19.75;4.15;;;;;;;3.13;100.00;99984.88;10321887;28;20156;-87
2022/01/02 20:32:09;;;;;;;21.65;4.95;;;;;;;6.35;100.00;100288.63;10306280;28;20478;-92
2022/01/02 20:37:10;;;;;;;26.10;3.92;;;;;;;3.93;100.00;99923.09;10322096;28;20034;-92
2022/01/02 20:42:13;;;;;;;23.77;4.10;;;;;;;3.78;100.00;99874.50;10306678;28;20050;-91
2022/01/02 20:47:13;;;;;;;19.55;4.45;;;;;;;1.66;100.00;99502.41;10305078;28;20026;-92
2022/01/02 20:52:15;;;;;;;17.55;3.00;;;;;;;4.17;100.00;99923.94;10304962;28;20058;-88
2022/01/02 20:57:15;;;;;;;19.30;3.58;;;;;;;6.46;100.00;100420.91;10305422;28;20038;-92
2022/01/02 21:02:17;;;;;;;16.92;6.00;;;;;;;4.67;100.00;100070.69;10320436;28;20410;-87
2022/01/02 21:07:17;;;;;;;15.98;3.28;;;;;;;3.14;100.00;99702.84;10319447;28;20164;-87
2022/01/02 21:12:18;;;;;;;15.80;3.53;;;;;;;5.62;100.00;100197.06;10320753;28;20159;-86
2022/01/02 21:17:19;;;;;;;9.40;2.83;;;;;;;2.70;100.00;99759.34;10335479;28;20049;-92
2022/01/02 21:22:20;;;;;;;20.90;3.35;;;;;;;5.69;100.00;100088.56;10322688;28;20045;-88
2022/01/02 21:27:21;;;;;;;20.23;3.65;;;;;;;3.92;100.00;99764.28;10303826;28;20093;-87
2022/01/02 21:32:22;;;;;;;17.73;3.38;;;;;;;6.93;100.00;100255.84;10336592;28;20036;-92
2022/01/02 21:37:22;;;;;;;9.23;2.30;;;;;;;5.12;100.00;99974.63;10325439;28;20038;-91
2022/01/02 21:42:23;;;;;;;5.82;1.75;;;;;;;3.21;100.00;99747.13;10304745;28;20552;-87
2022/01/02 21:47:36;;;;;;;;;;;;;;;;;;;;;
2022/01/02 21:53:06;;;;;;;10.20;1.80;;;;;;;1.53;100.00;99413.03;10361231;28;20030;-90
2022/01/02 21:58:23;;;;;;;;;;;;;;;;;;;;;
2022/01/02 22:04:17;;;;;;;;;;;;;;;;;;;;;
2022/01/02 22:16:22;;;;;;;;;;;;;;;;;;;;;
2022/01/02 22:22:20;;;;;;;3.63;1.00;;;;;;;1.02;100.00;99517.38;10173530;29;20068;-94
2022/01/02 22:28:28;;;;;;;6.18;2.22;;;;;;;1.04;100.00;99491.69;10140873;29;20393;-91
2022/01/02 22:33:30;;;;;;;3.17;1.00;;;;;;;5.50;100.00;100238.03;10291110;28;20038;-87
2022/01/02 22:38:31;;;;;;;1.95;0.60;;;;;;;3.88;100.00;100012.81;10282580;28;20463;-86
2022/01/02 22:43:32;;;;;;;2.80;0.30;;;;;;;5.60;100.00;100238.28;10300066;28;20054;-86
2022/01/02 22:48:34;;;;;;;1.88;0.45;;;;;;;4.73;100.00;100151.53;10283718;28;20050;-85
2022/01/02 22:53:34;;;;;;;5.50;1.08;;;;;;;4.13;100.00;99978.03;10299155;28;20034;-85
2022/01/02 22:58:35;;;;;;;3.70;0.75;;;;;;;5.26;100.00;100177.97;10284345;28;20038;-92
2022/01/02 23:03:36;;;;;;;11.30;0.73;;;;;;;4.02;100.00;99997.94;10285440;28;20058;-91
2022/01/02 23:08:37;;;;;;;5.60;1.10;;;;;;;4.14;100.00;100118.66;10286382;28;20049;-92
2022/01/02 23:13:44;;;;;;;3.55;0.70;;;;;;;4.98;100.00;100314.19;10286220;28;20034;-92
2022/01/02 23:18:45;;;;;;;;;;;;;;;7.17;100.00;100546.72;10270714;28;20089;-92
2022/01/02 23:23:46;;;;;;;4.05;0.68;;;;;;;1.66;100.00;99867.84;10302689;28;19920;-91
2022/01/02 23:28:46;;;;;;;4.05;1.02;;;;;;;4.20;100.00;100273.03;10293930;28;20070;-93
2022/01/02 23:33:47;;;;;;;4.97;0.60;;;;;;;3.91;100.00;100102.22;10293824;28;20125;-91
2022/01/02 23:38:47;;;;;;;12.35;0.90;;;;;;;2.53;100.00;99976.53;10293841;28;20493;-93
2022/01/02 23:43:49;;;;;;;3.13;0.60;;;;;;;4.73;100.00;100434.31;10295770;28;20030;-91
2022/01/02 23:48:51;;;;;;;6.70;0.55;;;;;;;3.59;100.00;100250.19;10295540;28;20530;-91
2022/01/02 23:53:51;;;;;;;4.38;0.60;;;;;;;2.20;100.00;100013.78;10293727;28;20104;-91
2022/01/02 23:58:53;;;;;;;8.75;0.63;;;;;;;3.87;100.00;100234.44;10292827;28;20034;-92
